Time;durP1;ratioP1;P1;durP2;ratioP2;P2;SDS_P1;SDS_P2;PMS_P1;PMS_P2;Temp;Humidity;BMP_temperature;BMP_pressure;BME280_temperature;BME280_humidity;BME280_pressure;Samples;Min_cycle;Max_cycle;Signal;HPM_P1;HPM_P2
2022/06/26 00:01:15;;;;;;;33.97;20.85;;;18.40;99.90;;;;;;5069703;28;20568;-80
2022/06/26 00:04:01;;;;;;;21.73;16.52;;;18.40;99.90;;;;;;5051930;28;20408;-79
2022/06/26 00:06:47;;;;;;;26.40;18.90;;;18.40;99.90;;;;;;5069564;28;20161;-80
2022/06/26 00:09:33;;;;;;;26.52;18.65;;;18.40;99.90;;;;;;5050932;28;20045;-79
2022/06/26 00:12:19;;;;;;;31.55;20.73;;;18.40;99.90;;;;;;5038631;28;20048;-79
2022/06/26 00:15:06;;;;;;;26.52;20.08;;;18.30;99.90;;;;;;5050375;28;20928;-80
2022/06/26 00:17:53;;;;;;;29.33;19.92;;;18.30;99.90;;;;;;5051330;28;20059;-80
2022/06/26 00:20:39;;;;;;;28.30;19.00;;;18.30;99.90;;;;;;5068807;28;20096;-80
2022/06/26 00:23:25;;;;;;;32.38;20.00;;;18.30;99.90;;;;;;5051675;28;20538;-80
2022/06/26 00:26:12;;;;;;;25.95;18.88;;;18.30;99.90;;;;;;5069750;28;20051;-80
2022/06/26 00:28:58;;;;;;;26.45;18.75;;;18.30;99.90;;;;;;5069809;28;20048;-79
2022/06/26 00:31:44;;;;;;;26.13;18.92;;;18.30;99.90;;;;;;5069495;28;20559;-79
2022/06/26 00:34:31;;;;;;;24.65;17.98;;;18.30;99.90;;;;;;5072365;28;20049;-79
2022/06/26 00:37:17;;;;;;;29.25;19.92;;;18.30;99.90;;;;;;5053903;28;20058;-79
2022/06/26 00:40:04;;;;;;;27.33;18.73;;;18.30;99.90;;;;;;5055277;28;20147;-79
2022/06/26 00:42:50;;;;;;;21.15;16.38;;;18.30;99.90;;;;;;5041944;28;20084;-80
2022/06/26 00:49:37;;;;;;;25.58;19.05;;;18.20;99.90;;;;;;5074975;28;20085;-80
2022/06/26 00:52:23;;;;;;;30.02;20.90;;;18.20;99.90;;;;;;5054661;28;20411;-79
2022/06/26 00:55:10;;;;;;;38.33;22.30;;;18.20;99.90;;;;;;5073637;28;20056;-80
2022/06/26 00:57:56;;;;;;;40.20;25.83;;;18.20;99.90;;;;;;5073092;28;20411;-79
2022/06/26 01:00:43;;;;;;;26.33;18.00;;;18.10;99.90;;;;;;5037972;28;20044;-80
2022/06/26 01:03:29;;;;;;;30.90;19.65;;;18.00;99.90;;;;;;5052841;28;20738;-78
2022/06/26 01:06:15;;;;;;;20.77;13.27;;;18.10;99.90;;;;;;5066844;28;20109;-79
2022/06/26 01:09:03;;;;;;;24.02;13.73;;;18.10;99.90;;;;;;5052769;28;20063;-80
2022/06/26 01:11:50;;;;;;;24.35;14.15;;;18.00;99.90;;;;;;5038793;28;20051;-80
2022/06/26 01:14:37;;;;;;;25.42;15.65;;;18.00;99.90;;;;;;5053822;28;20139;-80
2022/06/26 01:17:24;;;;;;;22.70;13.98;;;18.00;99.90;;;;;;5054469;28;20049;-80
2022/06/26 01:20:10;;;;;;;27.08;13.88;;;18.00;99.90;;;;;;5052196;28;20063;-81
2022/06/26 01:23:05;;;;;;;21.30;11.98;;;17.90;99.90;;;;;;5052489;28;20049;-81
2022/06/26 01:25:51;;;;;;;25.63;10.57;;;17.90;99.90;;;;;;5051724;28;20045;-80
2022/06/26 01:28:38;;;;;;;14.07;6.25;;;17.90;99.90;;;;;;5051129;28;20088;-80
2022/06/26 01:31:24;;;;;;;21.95;6.30;;;17.90;99.90;;;;;;5068287;28;20113;-80
2022/06/26 01:34:11;;;;;;;18.20;6.85;;;17.90;99.90;;;;;;5051041;28;20564;-80
2022/06/26 01:36:58;;;;;;;16.23;6.32;;;17.80;99.90;;;;;;5049893;28;20049;-80
2022/06/26 01:39:46;;;;;;;15.15;6.43;;;17.80;99.90;;;;;;5050376;28;20049;-80
2022/06/26 01:42:32;;;;;;;18.55;7.60;;;17.80;99.90;;;;;;5052969;28;20053;-80
2022/06/26 01:45:18;;;;;;;15.25;7.68;;;17.80;99.90;;;;;;5050096;28;20060;-80
2022/06/26 01:48:05;;;;;;;18.92;6.57;;;17.90;99.90;;;;;;5053637;28;20103;-80
2022/06/26 01:50:52;;;;;;;14.75;5.95;;;17.80;99.90;;;;;;5052646;28;20163;-80
2022/06/26 01:53:38;;;;;;;11.88;5.38;;;17.90;99.90;;;;;;5052421;28;20089;-81
2022/06/26 01:56:24;;;;;;;12.40;5.07;;;17.80;99.90;;;;;;5069024;28;20493;-80
2022/06/26 01:59:11;;;;;;;13.35;5.25;;;17.80;99.90;;;;;;5050268;28;20087;-80
2022/06/26 02:01:58;;;;;;;13.70;4.68;;;17.80;99.90;;;;;;5052657;28;20563;-80
2022/06/26 02:04:44;;;;;;;15.50;4.30;;;17.80;99.90;;;;;;5052082;28;20079;-80
2022/06/26 02:07:30;;;;;;;10.95;4.15;;;17.80;99.90;;;;;;5049923;28;20155;-80
2022/06/26 02:13:36;;;;;;;12.13;4.15;;;17.80;99.90;;;;;;5050734;28;20063;-80
2022/06/26 02:16:27;;;;;;;10.13;3.88;;;17.80;99.90;;;;;;5051803;28;20060;-80
2022/06/26 02:19:13;;;;;;;11.98;3.60;;;17.80;99.90;;;;;;5049713;28;20059;-81
2022/06/26 02:21:59;;;;;;;12.35;3.40;;;17.80;99.90;;;;;;5052489;28;20052;-80
2022/06/26 02:24:45;;;;;;;9.57;3.00;;;17.80;99.90;;;;;;5050002;28;20057;-81
2022/06/26 02:27:31;;;;;;;12.60;4.88;;;17.80;99.90;;;;;;5054581;28;20107;-81
2022/06/26 02:30:17;;;;;;;11.27;4.00;;;17.80;99.90;;;;;;5050413;28;20061;-80
2022/06/26 02:33:04;;;;;;;11.80;3.70;;;17.80;99.90;;;;;;5052109;28;20052;-80
2022/06/26 02:35:50;;;;;;;8.07;3.33;;;17.80;99.90;;;;;;5049773;28;20405;-80
2022/06/26 02:38:37;;;;;;;9.30;3.50;;;17.80;99.90;;;;;;5052634;28;20515;-80
2022/06/26 02:41:23;;;;;;;11.98;4.13;;;17.80;99.90;;;;;;5064636;28;20412;-80
2022/06/26 02:44:09;;;;;;;10.43;3.05;;;17.80;99.90;;;;;;5051417;28;20103;-80
2022/06/26 02:46:55;;;;;;;7.95;2.55;;;17.70;99.90;;;;;;5051786;28;20041;-80
2022/06/26 02:49:41;;;;;;;8.18;2.97;;;17.70;99.90;;;;;;5052110;28;20053;-80
2022/06/26 02:52:28;;;;;;;7.05;2.63;;;17.70;99.90;;;;;;5050410;28;20055;-80
2022/06/26 02:55:14;;;;;;;7.13;2.60;;;17.70;99.90;;;;;;5051842;28;20037;-80
2022/06/26 02:58:01;;;;;;;9.68;3.08;;;17.70;99.90;;;;;;5052715;28;20052;-81
2022/06/26 03:00:47;;;;;;;8.68;3.25;;;17.60;99.90;;;;;;5053084;28;20055;-81
2022/06/26 03:03:33;;;;;;;5.18;2.65;;;17.60;99.90;;;;;;5037856;28;20057;-80
2022/06/26 03:06:19;;;;;;;7.82;2.47;;;17.60;99.90;;;;;;5049416;28;20485;-80
2022/06/26 03:09:06;;;;;;;11.35;3.35;;;17.60;99.90;;;;;;5050497;28;20171;-80
2022/06/26 03:11:52;;;;;;;8.38;2.60;;;17.60;99.90;;;;;;5049771;28;20063;-80
2022/06/26 03:14:38;;;;;;;7.05;2.00;;;17.60;99.90;;;;;;5066796;28;20387;-80
2022/06/26 03:17:25;;;;;;;8.85;2.80;;;17.60;99.90;;;;;;5048935;28;20045;-80
2022/06/26 03:20:16;;;;;;;6.90;2.80;;;17.60;99.90;;;;;;5049304;28;20045;-80
2022/06/26 03:23:03;;;;;;;8.45;2.80;;;17.50;99.90;;;;;;5048108;28;20053;-80
2022/06/26 03:25:49;;;;;;;7.70;2.72;;;17.50;99.90;;;;;;5050844;28;20067;-81
2022/06/26 03:28:35;;;;;;;10.00;2.95;;;17.50;99.90;;;;;;5066332;28;20067;-80
2022/06/26 03:31:21;;;;;;;7.97;2.95;;;17.50;99.90;;;;;;5066076;28;20060;-80
2022/06/26 03:34:07;;;;;;;5.80;2.58;;;17.50;99.90;;;;;;5048818;28;20044;-80
2022/06/26 03:36:56;;;;;;;5.75;2.63;;;17.50;99.90;;;;;;5049915;28;20063;-80
2022/06/26 03:39:43;;;;;;;9.50;3.45;;;17.50;99.90;;;;;;5050643;28;20052;-81
2022/06/26 03:42:29;;;;;;;6.57;2.20;;;17.50;99.90;;;;;;5049650;28;20068;-81
2022/06/26 03:45:15;;;;;;;6.63;2.85;;;17.50;99.90;;;;;;5035240;28;20056;-80
2022/06/26 03:48:01;;;;;;;6.35;2.83;;;17.50;99.90;;;;;;5048817;28;20049;-81
2022/06/26 03:50:47;;;;;;;7.00;2.95;;;17.50;99.90;;;;;;5066123;28;20044;-81
2022/06/26 03:53:34;;;;;;;5.22;2.63;;;17.40;99.90;;;;;;5047644;28;20157;-81
2022/06/26 03:56:21;;;;;;;5.10;2.72;;;17.40;99.90;;;;;;5050703;28;20058;-81
2022/06/26 03:59:07;;;;;;;5.53;3.00;;;17.40;99.90;;;;;;5048595;28;20056;-80
2022/06/26 04:01:53;;;;;;;8.48;2.88;;;17.40;99.90;;;;;;5049910;28;20455;-80
2022/06/26 04:04:39;;;;;;;6.72;2.80;;;17.40;99.90;;;;;;5034950;28;20067;-80
2022/06/26 04:07:25;;;;;;;6.68;3.65;;;17.30;99.90;;;;;;5049134;28;20052;-80
2022/06/26 04:10:12;;;;;;;5.63;2.75;;;17.30;99.90;;;;;;5049593;28;20114;-80
2022/06/26 04:13:00;;;;;;;6.43;2.88;;;17.30;99.90;;;;;;5051101;28;20045;-81
2022/06/26 04:15:46;;;;;;;6.00;2.50;;;17.30;99.90;;;;;;5066276;28;20481;-80
2022/06/26 04:18:32;;;;;;;4.57;2.17;;;17.30;99.90;;;;;;5050665;28;20088;-80
2022/06/26 04:21:19;;;;;;;3.47;1.83;;;17.30;99.90;;;;;;5051508;28;20175;-81
2022/06/26 04:24:05;;;;;;;3.42;1.90;;;17.20;99.90;;;;;;5049017;28;20057;-81
2022/06/26 04:26:51;;;;;;;3.97;1.83;;;17.20;99.90;;;;;;5065888;28;20440;-81
2022/06/26 04:29:37;;;;;;;3.42;1.60;;;17.20;99.90;;;;;;5050911;28;20440;-81
2022/06/26 04:32:24;;;;;;;7.15;2.05;;;17.20;99.90;;;;;;5049371;28;20437;-80
2022/06/26 04:35:10;;;;;;;5.68;2.00;;;17.20;99.90;;;;;;5050578;28;20562;-80
2022/06/26 04:37:57;;;;;;;4.72;2.08;;;17.20;99.90;;;;;;5050181;28;20052;-80
2022/06/26 04:40:43;;;;;;;4.72;2.55;;;17.20;99.90;;;;;;5048335;28;20072;-81
2022/06/26 04:43:30;;;;;;;4.63;2.60;;;17.10;99.90;;;;;;5048933;28;20060;-81
2022/06/26 04:46:16;;;;;;;6.07;2.60;;;17.20;99.90;;;;;;5049757;28;20143;-81
2022/06/26 04:49:02;;;;;;;4.55;2.47;;;17.10;99.90;;;;;;5049496;28;20057;-81
2022/06/26 04:51:49;;;;;;;5.78;3.10;;;17.20;99.90;;;;;;5048498;28;20076;-80
2022/06/26 04:54:35;;;;;;;5.50;3.17;;;17.20;99.90;;;;;;5047939;28;20045;-80
2022/06/26 04:57:22;;;;;;;4.95;3.22;;;17.10;99.90;;;;;;5049462;28;20048;-80
2022/06/26 05:00:11;;;;;;;7.82;3.33;;;17.10;99.90;;;;;;5065763;28;20136;-81
2022/06/26 05:02:57;;;;;;;5.63;3.72;;;17.20;99.90;;;;;;5049931;28;20049;-79
2022/06/26 05:05:43;;;;;;;6.68;3.92;;;17.10;99.90;;;;;;5049364;28;20131;-81
2022/06/26 05:08:29;;;;;;;5.55;3.80;;;17.20;99.90;;;;;;5049299;28;20099;-80
2022/06/26 05:11:16;;;;;;;8.50;4.40;;;17.20;99.90;;;;;;5048884;28;20071;-81
2022/06/26 05:14:02;;;;;;;6.72;4.40;;;17.20;99.90;;;;;;5048424;28;20056;-80
2022/06/26 05:16:48;;;;;;;8.23;4.70;;;17.20;99.90;;;;;;5049116;28;20156;-80
2022/06/26 05:19:34;;;;;;;8.13;5.40;;;17.20;99.90;;;;;;5052285;28;20040;-81
2022/06/26 05:22:20;;;;;;;11.88;5.88;;;17.20;99.90;;;;;;5051103;28;20094;-79
2022/06/26 05:25:07;;;;;;;10.68;5.75;;;17.30;99.90;;;;;;5050400;28;20045;-80
2022/06/26 05:27:53;;;;;;;11.20;5.72;;;17.40;99.90;;;;;;5053238;28;20056;-80
2022/06/26 05:30:39;;;;;;;10.25;6.85;;;17.50;99.90;;;;;;5052121;28;20408;-80
2022/06/26 05:33:26;;;;;;;9.20;7.38;;;17.50;99.90;;;;;;5057168;28;20401;-81
2022/06/26 05:36:12;;;;;;;12.02;7.50;;;17.60;99.90;;;;;;5050767;28;20061;-81
2022/06/26 05:38:58;;;;;;;13.55;7.85;;;17.70;99.90;;;;;;5052307;28;20045;-80
2022/06/26 05:41:44;;;;;;;14.35;9.75;;;17.80;99.90;;;;;;5054237;28;20377;-80
2022/06/26 05:44:30;;;;;;;15.38;9.60;;;17.80;99.90;;;;;;5051040;28;20408;-80
2022/06/26 05:47:16;;;;;;;17.23;10.35;;;17.80;99.90;;;;;;5052765;28;20106;-80
2022/06/26 05:50:03;;;;;;;16.42;9.65;;;17.90;99.90;;;;;;5051670;28;20109;-80
2022/06/26 05:52:49;;;;;;;16.60;10.02;;;17.80;99.90;;;;;;5052343;28;20056;-80
2022/06/26 05:55:38;;;;;;;15.30;10.57;;;17.90;99.90;;;;;;5052436;28;20048;-80
2022/06/26 05:58:24;;;;;;;15.68;9.90;;;17.90;99.90;;;;;;5052358;28;20083;-80
2022/06/26 06:01:10;;;;;;;18.88;10.88;;;18.00;99.90;;;;;;5018096;28;20114;-81
2022/06/26 06:03:56;;;;;;;14.00;10.52;;;18.00;99.90;;;;;;5030302;28;20512;-80
2022/06/26 06:06:43;;;;;;;14.95;10.23;;;18.00;99.90;;;;;;5033044;28;20512;-79
2022/06/26 06:09:29;;;;;;;18.17;11.27;;;17.90;99.90;;;;;;5032371;28;20056;-80
2022/06/26 06:12:15;;;;;;;18.13;11.48;;;17.90;99.90;;;;;;5031855;28;20080;-80
2022/06/26 06:15:02;;;;;;;17.73;10.50;;;18.00;99.90;;;;;;5032579;28;20069;-81
2022/06/26 06:17:48;;;;;;;15.10;9.75;;;18.00;99.90;;;;;;5032319;28;20057;-81
2022/06/26 06:20:35;;;;;;;16.17;9.82;;;18.10;99.90;;;;;;5017480;28;20057;-82
2022/06/26 06:23:21;;;;;;;13.52;9.32;;;18.10;99.90;;;;;;5032034;28;20068;-81
2022/06/26 06:26:07;;;;;;;16.58;9.50;;;18.20;99.90;;;;;;5018075;28;20144;-82
2022/06/26 06:28:53;;;;;;;15.45;9.88;;;18.10;99.90;;;;;;5032279;28;20077;-81
2022/06/26 06:31:39;;;;;;;13.93;9.05;;;18.10;99.90;;;;;;5032269;28;20054;-81
2022/06/26 06:34:25;;;;;;;14.30;7.53;;;18.20;99.90;;;;;;5031041;28;20041;-81
2022/06/26 06:37:11;;;;;;;17.40;8.63;;;18.30;99.90;;;;;;5032068;28;20049;-81
2022/06/26 06:39:58;;;;;;;10.98;7.20;;;18.40;99.90;;;;;;5032004;28;20141;-81
2022/06/26 06:42:44;;;;;;;15.45;8.35;;;18.50;99.90;;;;;;5032404;28;20091;-82
2022/06/26 06:45:30;;;;;;;13.98;6.90;;;18.50;99.90;;;;;;5030586;28;20068;-81
2022/06/26 06:48:17;;;;;;;8.77;4.72;;;18.50;99.90;;;;;;5030665;28;20068;-81
2022/06/26 06:51:04;;;;;;;9.98;3.58;;;18.50;99.90;;;;;;5030557;28;20114;-81
2022/06/26 06:53:50;;;;;;;5.95;2.67;;;18.60;99.90;;;;;;5031224;28;20057;-81
2022/06/26 06:56:37;;;;;;;8.10;3.10;;;18.60;99.90;;;;;;5032128;28;20045;-82
2022/06/26 06:59:23;;;;;;;7.07;3.00;;;18.50;99.90;;;;;;5045384;28;20048;-80
2022/06/26 07:02:09;;;;;;;6.07;2.08;;;18.40;99.90;;;;;;5072794;28;20139;-82
2022/06/26 07:04:55;;;;;;;3.97;1.83;;;18.40;99.90;;;;;;5073664;28;20408;-81
2022/06/26 07:07:42;;;;;;;8.35;2.40;;;18.30;99.90;;;;;;5074545;28;20045;-81
2022/06/26 07:10:28;;;;;;;6.68;2.10;;;18.30;99.90;;;;;;5070788;28;20057;-81
2022/06/26 07:13:14;;;;;;;6.50;2.17;;;18.30;99.90;;;;;;5071338;28;20063;-80
2022/06/26 07:16:01;;;;;;;10.68;2.63;;;18.30;99.90;;;;;;5069860;28;20044;-81
2022/06/26 07:18:48;;;;;;;8.77;2.65;;;18.30;99.90;;;;;;5069799;28;20068;-81
2022/06/26 07:21:34;;;;;;;7.57;2.53;;;18.30;99.90;;;;;;5070483;28;20048;-81
2022/06/26 07:24:20;;;;;;;4.82;2.20;;;18.30;99.90;;;;;;5070299;28;20696;-81
2022/06/26 07:27:07;;;;;;;6.85;2.58;;;18.30;99.90;;;;;;5070623;28;20476;-80
2022/06/26 07:29:53;;;;;;;6.95;1.88;;;18.60;99.90;;;;;;5070258;28;20063;-81
2022/06/26 07:32:39;;;;;;;9.10;3.38;;;19.00;99.90;;;;;;5071450;28;20047;-81
2022/06/26 07:35:25;;;;;;;6.68;1.90;;;19.40;99.90;;;;;;5070816;28;20055;-81
2022/06/26 07:38:11;;;;;;;5.30;1.92;;;19.60;99.90;;;;;;5052874;28;20056;-81
2022/06/26 07:40:58;;;;;;;6.38;1.92;;;19.50;99.90;;;;;;5057472;28;20416;-80
2022/06/26 07:43:44;;;;;;;4.80;2.20;;;19.60;99.90;;;;;;5072155;28;20131;-81
2022/06/26 07:46:30;;;;;;;5.20;2.15;;;19.90;99.90;;;;;;5053036;28;20052;-81
2022/06/26 07:49:16;;;;;;;4.82;1.95;;;19.90;99.90;;;;;;5070775;28;20049;-82
2022/06/26 07:52:02;;;;;;;7.90;2.58;;;20.00;99.90;;;;;;5070758;28;20087;-81
2022/06/26 07:54:49;;;;;;;5.35;2.60;;;19.90;99.90;;;;;;5070375;28;20044;-82
2022/06/26 07:57:35;;;;;;;8.20;3.10;;;20.00;99.90;;;;;;5070761;28;20053;-82
2022/06/26 08:00:21;;;;;;;6.88;2.47;;;20.10;99.90;;;;;;5020861;28;20057;-82
2022/06/26 08:03:10;;;;;;;7.88;2.45;;;20.40;99.90;;;;;;5029386;28;20057;-82
2022/06/26 08:05:56;;;;;;;6.00;2.05;;;20.80;99.90;;;;;;5030401;28;20553;-81
2022/06/26 08:08:43;;;;;;;4.40;2.00;;;21.20;99.90;;;;;;5030040;28;20061;-82
2022/06/26 08:11:29;;;;;;;7.13;2.55;;;21.00;99.90;;;;;;5028777;28;20501;-82
2022/06/26 08:14:15;;;;;;;4.38;2.70;;;20.90;99.90;;;;;;5029815;28;20096;-82
2022/06/26 08:17:01;;;;;;;5.95;2.80;;;21.00;99.90;;;;;;5029841;28;20079;-83
2022/06/26 08:19:48;;;;;;;4.72;1.80;;;21.10;99.90;;;;;;5029206;28;20049;-82
2022/06/26 08:22:34;;;;;;;4.97;2.28;;;21.40;99.90;;;;;;5030344;28;20053;-82
2022/06/26 08:25:21;;;;;;;8.00;2.92;;;21.70;99.90;;;;;;5029492;28;20088;-80
2022/06/26 08:28:07;;;;;;;5.30;2.53;;;21.70;99.90;;;;;;5013017;28;20179;-82
2022/06/26 08:30:53;;;;;;;5.78;3.55;;;21.80;99.90;;;;;;5012481;28;20100;-81
2022/06/26 08:33:39;;;;;;;5.88;2.92;;;21.50;99.90;;;;;;5012800;28;20073;-81
2022/06/26 08:36:25;;;;;;;9.65;4.60;;;21.60;99.90;;;;;;5013188;28;20072;-81
2022/06/26 08:39:12;;;;;;;11.48;5.30;;;21.50;99.90;;;;;;5011452;28;20069;-82
2022/06/26 08:41:59;;;;;;;10.40;5.55;;;21.30;99.90;;;;;;5030738;28;20053;-81
2022/06/26 08:44:46;;;;;;;9.18;4.47;;;21.00;99.90;;;;;;5012013;28;20054;-81
2022/06/26 08:47:37;;;;;;;9.20;5.65;;;20.90;99.90;;;;;;5028663;28;20110;-81
2022/06/26 08:50:24;;;;;;;9.48;5.43;;;20.80;99.90;;;;;;5030676;28;20054;-80
2022/06/26 08:53:10;;;;;;;8.57;4.88;;;20.90;99.90;;;;;;5012506;28;20053;-82
2022/06/26 08:55:57;;;;;;;9.77;5.00;;;21.00;99.90;;;;;;5016112;28;20046;-83
2022/06/26 08:58:43;;;;;;;7.70;3.95;;;21.30;99.90;;;;;;5036435;28;20064;-81
2022/06/26 09:01:29;;;;;;;11.52;4.57;;;22.00;99.90;;;;;;5073870;28;20535;-81
2022/06/26 09:04:16;;;;;;;5.10;2.33;;;22.30;99.90;;;;;;5072568;28;20532;-82
2022/06/26 09:07:05;;;;;;;6.30;2.10;;;22.30;99.90;;;;;;5054775;28;20048;-82
2022/06/26 09:09:51;;;;;;;6.53;3.10;;;22.50;99.90;;;;;;5073041;28;20048;-82
2022/06/26 09:12:37;;;;;;;7.07;2.28;;;22.80;99.90;;;;;;5054552;28;20052;-81
2022/06/26 09:15:25;;;;;;;4.38;1.90;;;23.00;99.90;;;;;;5055984;28;20110;-80
2022/06/26 09:18:13;;;;;;;4.68;1.80;;;23.30;99.90;;;;;;5077340;28;20079;-82
2022/06/26 09:20:59;;;;;;;4.82;1.60;;;23.20;99.90;;;;;;5075310;28;20040;-81
2022/06/26 09:23:55;;;;;;;3.20;1.73;;;23.20;99.90;;;;;;5056765;28;20056;-82
2022/06/26 09:26:43;;;;;;;2.72;1.42;;;23.00;99.90;;;;;;5054947;28;20457;-82
2022/06/26 09:29:29;;;;;;;3.08;1.17;;;23.40;99.90;;;;;;5072830;28;20083;-82
2022/06/26 09:32:16;;;;;;;5.55;1.65;;;23.60;99.90;;;;;;5056134;28;20411;-82
2022/06/26 09:35:06;;;;;;;4.10;1.90;;;23.90;99.90;;;;;;5073426;28;20396;-82
2022/06/26 09:37:52;;;;;;;4.65;1.73;;;24.00;99.90;;;;;;5071542;28;20190;-82
2022/06/26 09:40:45;;;;;;;6.80;1.70;;;23.60;99.90;;;;;;5055344;28;20576;-82
2022/06/26 09:43:35;;;;;;;3.85;2.10;;;23.80;99.40;;;;;;5040478;28;20144;-82
2022/06/26 09:46:31;;;;;;;4.28;1.30;;;23.50;99.20;;;;;;5055046;28;20040;-82
2022/06/26 09:49:18;;;;;;;4.07;2.30;;;23.20;99.30;;;;;;5071178;28;20051;-82
2022/06/26 09:52:04;;;;;;;3.90;2.28;;;22.90;99.90;;;;;;5053643;28;20514;-82
2022/06/26 09:54:52;;;;;;;8.35;2.63;;;22.90;99.90;;;;;;5073153;28;20049;-82
2022/06/26 09:57:38;;;;;;;4.70;2.33;;;23.10;99.90;;;;;;5072221;28;20052;-82
2022/06/26 10:00:30;;;;;;;3.88;1.80;;;23.40;99.90;;;;;;5070865;28;20508;-81
2022/06/26 10:06:28;;;;;;;4.38;1.70;;;23.90;99.90;;;;;;5070378;28;20040;-81
2022/06/26 10:09:17;;;;;;;6.03;2.13;;;24.20;99.90;;;;;;5074103;28;20139;-81
2022/06/26 10:12:05;;;;;;;5.35;1.77;;;24.20;99.60;;;;;;5075658;28;20053;-81
2022/06/26 10:14:53;;;;;;;7.28;1.70;;;24.10;99.20;;;;;;5058384;28;20053;-82
2022/06/26 10:18:18;;;;;;;4.43;1.60;;;24.50;99.90;;;;;;5054053;28;20079;-81
2022/06/26 10:21:10;;;;;;;5.80;2.10;;;24.80;98.00;;;;;;5071977;28;20079;-81
2022/06/26 10:24:03;;;;;;;3.35;1.40;;;24.90;98.50;;;;;;5054556;28;20141;-81
2022/06/26 10:26:57;;;;;;;5.07;1.65;;;24.80;98.60;;;;;;5054750;28;20048;-81
2022/06/26 10:29:44;;;;;;;4.57;1.45;;;24.70;98.10;;;;;;5053103;28;20079;-82
2022/06/26 10:32:30;;;;;;;3.05;1.30;;;24.70;97.80;;;;;;5070776;28;20535;-82
2022/06/26 10:35:16;;;;;;;4.47;1.23;;;25.10;97.70;;;;;;5071258;28;20040;-81
2022/06/26 10:38:26;;;;;;;4.75;1.58;;;25.30;97.40;;;;;;5071788;28;20064;-81
2022/06/26 10:44:27;;;;;;;3.50;1.13;;;25.60;95.70;;;;;;5052636;28;20471;-81
2022/06/26 10:47:17;;;;;;;3.53;1.08;;;25.20;95.10;;;;;;5070787;28;20059;-81
2022/06/26 10:50:04;;;;;;;3.70;1.25;;;25.20;94.40;;;;;;5053837;28;20569;-81
2022/06/26 10:52:50;;;;;;;5.47;1.50;;;25.20;94.80;;;;;;5054639;28;20052;-81
2022/06/26 10:55:41;;;;;;;4.30;1.27;;;25.30;95.90;;;;;;5054233;28;20135;-81
2022/06/26 10:58:32;;;;;;;3.30;1.27;;;25.30;95.70;;;;;;5052757;28;20139;-81
2022/06/26 11:01:18;;;;;;;3.85;1.40;;;25.30;94.60;;;;;;5051144;28;20052;-81
2022/06/26 11:04:04;;;;;;;2.60;1.10;;;25.30;94.70;;;;;;5051397;28;20053;-81
2022/06/26 11:06:50;;;;;;;5.28;1.73;;;25.80;95.20;;;;;;5051019;28;20501;-80
2022/06/26 11:09:37;;;;;;;6.05;1.60;;;26.00;96.00;;;;;;5051051;28;20562;-81
2022/06/26 11:12:23;;;;;;;4.35;1.88;;;26.00;97.20;;;;;;5050855;28;20059;-80
2022/06/26 11:15:31;;;;;;;6.93;1.85;;;25.80;97.50;;;;;;5050750;28;20049;-80
2022/06/26 11:18:17;;;;;;;6.18;2.00;;;26.00;97.20;;;;;;5050393;28;20473;-79
2022/06/26 11:21:04;;;;;;;6.00;1.95;;;25.90;97.00;;;;;;5049278;28;20053;-80
2022/06/26 11:23:51;;;;;;;7.03;1.70;;;26.00;97.40;;;;;;5052131;28;20504;-80
2022/06/26 11:26:37;;;;;;;7.05;2.00;;;26.20;97.90;;;;;;5062381;28;20059;-80
2022/06/26 11:29:24;;;;;;;6.35;2.40;;;26.30;97.30;;;;;;5050922;28;20049;-80
2022/06/26 11:32:10;;;;;;;5.35;2.05;;;26.10;96.60;;;;;;5050585;28;20076;-81
2022/06/26 11:34:56;;;;;;;4.93;2.08;;;26.10;97.80;;;;;;5049559;28;20501;-82
2022/06/26 11:37:42;;;;;;;9.18;2.08;;;26.40;96.90;;;;;;5035312;28;20057;-81
2022/06/26 11:40:29;;;;;;;4.93;1.88;;;26.40;96.50;;;;;;5049315;28;20510;-81
2022/06/26 11:43:16;;;;;;;4.90;1.70;;;26.30;96.80;;;;;;5050641;28;20044;-81
2022/06/26 11:46:03;;;;;;;5.72;1.70;;;26.60;96.10;;;;;;5048935;28;20103;-80
2022/06/26 11:48:51;;;;;;;5.93;1.85;;;26.60;95.60;;;;;;5033810;28;20102;-80
2022/06/26 11:51:37;;;;;;;5.55;1.83;;;26.40;96.00;;;;;;5050886;28;20412;-81
2022/06/26 11:54:25;;;;;;;8.85;2.10;;;26.10;96.00;;;;;;5049930;28;20404;-80
2022/06/26 11:57:13;;;;;;;7.60;2.20;;;25.90;96.30;;;;;;5047831;28;20485;-81
2022/06/26 12:00:04;;;;;;;4.63;1.73;;;26.00;96.10;;;;;;5036721;28;20507;-80
2022/06/26 12:02:51;;;;;;;3.00;1.60;;;26.00;96.10;;;;;;5012819;28;20405;-82
2022/06/26 12:05:43;;;;;;;6.70;2.35;;;25.60;96.50;;;;;;5012997;28;20097;-82
2022/06/26 12:08:30;;;;;;;3.40;1.23;;;25.30;96.90;;;;;;5013152;28;20555;-80
2022/06/26 12:11:16;;;;;;;5.88;1.65;;;25.40;97.60;;;;;;5030661;28;20124;-82
2022/06/26 12:14:11;;;;;;;4.00;1.40;;;25.60;97.00;;;;;;5029847;28;20056;-81
2022/06/26 12:17:04;;;;;;;3.72;1.40;;;25.90;96.70;;;;;;5030453;28;20119;-81
2022/06/26 12:19:50;;;;;;;6.43;1.40;;;26.00;96.20;;;;;;5031523;28;20051;-82
2022/06/26 12:22:37;;;;;;;4.97;1.58;;;26.10;96.00;;;;;;5012918;28;20064;-81
2022/06/26 12:25:32;;;;;;;5.57;1.40;;;26.00;95.90;;;;;;5029571;28;20064;-81
2022/06/26 12:28:23;;;;;;;4.88;1.50;;;26.30;95.70;;;;;;5028077;28;20530;-81
2022/06/26 12:31:11;;;;;;;8.50;1.92;;;26.40;95.00;;;;;;5028355;28;20066;-81
2022/06/26 12:33:57;;;;;;;5.55;1.73;;;26.30;95.00;;;;;;5013366;28;20050;-81
2022/06/26 12:36:43;;;;;;;5.55;1.65;;;25.80;95.50;;;;;;5029924;28;20053;-81
2022/06/26 12:39:29;;;;;;;5.65;1.65;;;25.50;95.50;;;;;;5029653;28;20169;-81
2022/06/26 12:42:15;;;;;;;5.25;1.52;;;25.20;96.00;;;;;;5029850;28;20052;-82
2022/06/26 12:45:02;;;;;;;6.82;1.50;;;24.70;96.90;;;;;;5029937;28;20064;-81
2022/06/26 12:47:49;;;;;;;4.68;1.33;;;24.40;96.90;;;;;;5028132;28;20056;-81
2022/06/26 12:50:36;;;;;;;4.35;1.73;;;24.10;97.60;;;;;;5029906;28;20499;-81
2022/06/26 12:53:22;;;;;;;6.28;1.65;;;24.00;98.60;;;;;;5013108;28;20471;-82
2022/06/26 12:56:10;;;;;;;6.15;1.85;;;24.00;98.30;;;;;;5014167;28;20050;-82
2022/06/26 12:58:56;;;;;;;5.30;2.10;;;23.80;98.40;;;;;;5036163;28;20110;-81
2022/06/26 13:01:42;;;;;;;6.28;1.80;;;23.70;99.00;;;;;;5053680;28;20490;-81
2022/06/26 13:04:29;;;;;;;4.50;1.70;;;23.90;99.20;;;;;;5050982;28;20055;-82
2022/06/26 13:07:15;;;;;;;5.00;1.52;;;24.00;98.80;;;;;;5069792;28;20048;-81
2022/06/26 13:10:01;;;;;;;4.35;1.33;;;24.10;98.80;;;;;;5052010;28;20071;-79
2022/06/26 13:12:47;;;;;;;12.32;6.88;;;24.40;98.50;;;;;;5069390;28;20143;-81
2022/06/26 13:15:33;;;;;;;8.27;2.08;;;24.50;98.20;;;;;;5050897;28;20056;-81
2022/06/26 13:18:20;;;;;;;5.85;2.53;;;24.60;98.20;;;;;;5069957;28;20056;-81
2022/06/26 13:21:08;;;;;;;8.48;2.15;;;24.40;98.20;;;;;;5052066;28;20115;-81
2022/06/26 13:23:54;;;;;;;8.18;3.10;;;24.50;98.40;;;;;;5073697;28;20078;-80
2022/06/26 13:26:41;;;;;;;6.88;2.17;;;24.40;98.20;;;;;;5057301;28;20075;-82
2022/06/26 13:29:27;;;;;;;10.75;4.18;;;24.40;98.30;;;;;;5050745;28;20136;-81
2022/06/26 13:32:13;;;;;;;34.20;24.05;;;24.50;98.30;;;;;;5069931;28;20056;-81
2022/06/26 13:35:00;;;;;;;51.22;31.10;;;24.60;97.40;;;;;;5051036;28;20409;-80
2022/06/26 13:37:46;;;;;;;6.30;2.65;;;24.40;96.90;;;;;;5050331;28;20040;-79
2022/06/26 13:40:32;;;;;;;6.75;2.08;;;24.20;97.60;;;;;;5039038;28;20079;-80
2022/06/26 13:43:18;;;;;;;47.45;36.25;;;24.00;98.60;;;;;;5072308;28;20389;-80
2022/06/26 13:46:04;;;;;;;5.13;2.38;;;24.10;99.10;;;;;;5072337;28;20497;-80
2022/06/26 13:48:50;;;;;;;6.97;2.38;;;24.20;98.20;;;;;;5054482;28;20052;-81
2022/06/26 13:51:38;;;;;;;7.10;1.98;;;24.30;98.70;;;;;;5055039;28;20071;-81
2022/06/26 13:54:24;;;;;;;5.18;2.10;;;24.40;98.90;;;;;;5054498;28;20044;-79
2022/06/26 13:57:11;;;;;;;3.90;1.65;;;24.40;98.30;;;;;;5054615;28;20052;-81
2022/06/26 13:59:57;;;;;;;6.53;2.17;;;24.50;98.20;;;;;;5071742;28;20084;-81
2022/06/26 14:02:43;;;;;;;4.78;1.77;;;24.60;98.50;;;;;;5055533;28;20052;-79
2022/06/26 14:05:29;;;;;;;3.78;1.83;;;24.50;97.50;;;;;;5053854;28;20067;-80
2022/06/26 14:08:15;;;;;;;4.60;1.90;;;24.50;98.10;;;;;;5071875;28;20050;-80
2022/06/26 14:11:01;;;;;;;6.03;2.13;;;24.40;98.40;;;;;;5072508;28;20047;-80
2022/06/26 14:13:48;;;;;;;7.53;2.08;;;24.30;97.60;;;;;;5070020;28;20072;-81
2022/06/26 14:16:34;;;;;;;5.78;2.88;;;24.20;97.90;;;;;;5039996;28;20419;-79
2022/06/26 14:19:20;;;;;;;6.15;2.03;;;24.20;96.70;;;;;;5054605;28;20056;-78
2022/06/26 14:28:16;;;;;;;7.22;1.80;;;23.90;99.30;;;;;;5070928;28;20040;-80
2022/06/26 14:31:06;;;;;;;8.48;2.25;;;23.70;99.60;;;;;;5072535;28;20421;-79
2022/06/26 14:33:52;;;;;;;5.10;1.60;;;23.70;99.90;;;;;;5070841;28;20045;-80
2022/06/26 14:36:38;;;;;;;5.75;1.48;;;23.70;99.90;;;;;;5071851;28;20080;-80
2022/06/26 14:39:24;;;;;;;9.88;2.10;;;23.60;99.90;;;;;;5069504;28;20403;-81
2022/06/26 14:42:10;;;;;;;6.18;1.80;;;23.60;99.90;;;;;;5054197;28;20094;-80
2022/06/26 14:44:57;;;;;;;5.13;1.75;;;23.60;99.90;;;;;;5054432;28;20113;-79